Time;durP1;ratioP1;P1;durP2;ratioP2;P2;SDS_P1;SDS_P2;PMS_P1;PMS_P2;Temp;Humidity;BMP_temperature;BMP_pressure;BME280_temperature;BME280_humidity;BME280_pressure;Samples;Min_cycle;Max_cycle;Signal;HPM_P1;HPM_P2
2023/04/02 00:01:02;;;;;;;12.27;7.65;;;;;;;10.71;68.71;101377.25;5102260;28;20059;-43
2023/04/02 00:03:43;;;;;;;13.68;7.30;;;;;;;10.89;68.40;101385.44;5096462;28;20072;-44
2023/04/02 00:06:31;;;;;;;10.90;7.10;;;;;;;11.16;67.37;101388.59;5097445;28;20447;-49
2023/04/02 00:09:03;;;;;;;13.88;7.90;;;;;;;10.89;68.15;101393.28;5096345;28;20107;-44
2023/04/02 00:11:34;;;;;;;12.10;7.85;;;;;;;10.93;67.87;101390.75;5101646;28;20036;-43
2023/04/02 00:14:01;;;;;;;13.70;7.82;;;;;;;10.61;69.42;101398.78;5100232;27;20035;-43
2023/04/02 00:16:27;;;;;;;14.88;8.35;;;;;;;10.35;69.46;101412.09;5104983;27;20031;-43
2023/04/02 00:18:57;;;;;;;11.70;7.72;;;;;;;10.81;68.31;101408.75;5101848;27;20039;-42
2023/04/02 00:21:26;;;;;;;12.75;7.90;;;;;;;10.78;67.76;101411.31;5103967;28;20517;-44
2023/04/02 00:23:53;;;;;;;14.93;7.78;;;;;;;10.77;67.77;101419.09;5101736;27;20072;-41
2023/04/02 00:26:31;;;;;;;13.20;8.45;;;;;;;10.60;67.85;101417.88;5105958;28;20119;-42
2023/04/02 00:28:58;;;;;;;14.40;7.90;;;;;;;10.52;67.80;101423.78;5101011;27;20042;-45
2023/04/02 00:31:24;;;;;;;12.50;7.63;;;;;;;10.80;67.02;101420.03;5105505;27;20489;-44
2023/04/02 00:33:51;;;;;;;12.20;8.02;;;;;;;10.72;67.35;101429.44;5101707;27;20063;-45
2023/04/02 00:36:20;;;;;;;14.98;8.25;;;;;;;10.58;67.98;101431.75;5106980;27;20050;-45
2023/04/02 00:38:47;;;;;;;13.40;8.30;;;;;;;10.66;67.27;101431.03;5106282;27;20035;-43
2023/04/02 00:41:21;;;;;;;14.48;7.95;;;;;;;10.41;68.03;101450.47;5110023;28;20030;-43
2023/04/02 00:43:51;;;;;;;12.57;7.93;;;;;;;10.27;68.22;101455.34;5101555;27;20111;-42
2023/04/02 00:46:22;;;;;;;13.05;7.70;;;;;;;10.30;67.33;101452.81;5105941;27;20126;-43
2023/04/02 00:48:55;;;;;;;12.82;7.65;;;;;;;10.40;67.90;101460.00;5101980;27;20046;-43
2023/04/02 00:51:25;;;;;;;11.73;7.18;;;;;;;10.56;66.92;101458.63;5105149;28;20085;-41
2023/04/02 00:53:53;;;;;;;11.57;7.18;;;;;;;10.78;66.62;101466.09;5099333;27;20043;-43
2023/04/02 00:56:25;;;;;;;11.93;7.07;;;;;;;10.02;67.80;101455.56;5104607;28;20081;-42
2023/04/02 00:58:56;;;;;;;12.52;7.25;;;;;;;10.53;67.09;101472.47;5101301;28;20034;-43
2023/04/02 01:01:28;;;;;;;11.52;7.18;;;;;;;10.01;68.34;101472.91;5105108;28;20091;-42
2023/04/02 01:04:00;;;;;;;12.45;7.47;;;;;;;10.18;68.04;101478.59;5098838;28;20043;-43
2023/04/02 01:06:30;;;;;;;12.98;7.10;;;;;;;10.28;67.65;101487.50;5104807;28;20023;-42
2023/04/02 01:08:58;;;;;;;11.43;6.85;;;;;;;10.03;67.72;101483.38;5099239;27;20032;-43
2023/04/02 01:11:48;;;;;;;11.60;7.30;;;;;;;10.03;68.11;101488.59;5104960;27;20092;-43
2023/04/02 01:14:48;;;;;;;13.63;6.93;;;;;;;10.06;67.92;101496.50;5099899;27;20493;-43
2023/04/02 01:17:41;;;;;;;11.80;6.95;;;;;;;10.36;67.50;101499.00;5067320;28;20027;-43
2023/04/02 01:20:15;;;;;;;11.20;6.82;;;;;;;10.40;67.14;101503.44;5101460;27;20103;-43
2023/04/02 01:23:26;;;;;;;10.07;6.55;;;;;;;10.23;67.15;101510.84;5095218;28;20072;-47
2023/04/02 01:26:15;;;;;;;10.73;6.93;;;;;;;10.19;67.57;101522.00;5077347;28;20435;-44
2023/04/02 01:28:56;;;;;;;10.98;6.35;;;;;;;9.74;68.26;101516.47;5106115;28;20501;-44
2023/04/02 01:31:23;;;;;;;9.52;6.15;;;;;;;10.18;67.66;101524.59;5101097;28;20028;-44
2023/04/02 01:33:48;;;;;;;10.25;6.47;;;;;;;9.65;68.82;101522.31;5102914;28;20032;-46
2023/04/02 01:36:35;;;;;;;9.98;6.38;;;;;;;9.86;68.41;101526.34;5106440;28;20054;-42
2023/04/02 01:39:11;;;;;;;10.88;6.35;;;;;;;10.20;67.86;101541.13;5102615;28;20039;-43
2023/04/02 01:41:49;;;;;;;10.43;6.25;;;;;;;10.13;67.68;101538.34;5089064;28;20088;-42
2023/04/02 01:44:34;;;;;;;10.93;6.00;;;;;;;10.15;66.44;101541.00;5100683;28;20042;-43
2023/04/02 01:47:02;;;;;;;10.38;6.35;;;;;;;9.59;68.42;101536.88;5082495;28;20047;-42
2023/04/02 01:49:28;;;;;;;11.02;6.60;;;;;;;10.02;66.95;101534.59;5086042;28;20027;-43
2023/04/02 01:51:55;;;;;;;9.40;6.18;;;;;;;10.00;66.95;101551.03;5080160;28;20534;-42
2023/04/02 01:54:22;;;;;;;10.68;6.20;;;;;;;10.34;66.44;101553.69;5079929;28;20485;-43
2023/04/02 01:56:47;;;;;;;10.07;6.30;;;;;;;10.46;66.51;101551.38;5099416;28;20039;-43
2023/04/02 01:59:16;;;;;;;12.82;7.05;;;;;;;10.51;66.27;101564.53;5104383;28;20081;-48
2023/04/02 02:01:48;;;;;;;13.20;7.10;;;;;;;10.12;66.73;101564.38;5090912;28;20032;-43
2023/04/02 02:04:15;;;;;;;12.25;7.20;;;;;;;10.39;66.63;101577.25;5104105;28;20039;-44
2023/04/02 02:06:41;;;;;;;11.45;6.90;;;;;;;10.26;66.16;101569.97;5103079;28;20042;-42
2023/04/02 02:09:11;;;;;;;11.10;6.95;;;;;;;10.37;66.31;101579.81;5101342;28;20028;-44
2023/04/02 02:11:37;;;;;;;12.57;7.10;;;;;;;10.18;66.81;101582.81;5105003;28;20369;-45
2023/04/02 02:14:16;;;;;;;10.70;6.63;;;;;;;10.45;66.18;101587.84;5101331;28;20031;-42
2023/04/02 02:16:41;;;;;;;10.27;6.38;;;;;;;10.07;66.73;101587.69;5103978;28;20031;-44
2023/04/02 02:19:21;;;;;;;11.52;6.70;;;;;;;10.27;66.62;101593.47;5099915;27;20027;-42
2023/04/02 02:21:51;;;;;;;9.82;5.78;;;;;;;9.84;66.58;101588.78;5096967;28;20084;-45
2023/04/02 02:24:30;;;;;;;10.57;6.45;;;;;;;10.05;66.65;101604.13;5102711;28;20039;-44
2023/04/02 02:27:21;;;;;;;9.38;5.88;;;;;;;10.12;66.57;101604.31;5098534;27;20042;-44
2023/04/02 02:29:52;;;;;;;13.27;6.50;;;;;;;9.85;66.99;101610.50;5098768;28;20122;-42
2023/04/02 02:32:21;;;;;;;10.50;6.30;;;;;;;9.88;66.32;101611.47;5105609;27;20057;-42
2023/04/02 02:35:31;;;;;;;9.77;6.65;;;;;;;9.83;67.92;101620.88;5100578;27;20135;-45
2023/04/02 02:38:05;;;;;;;12.38;6.15;;;;;;;9.86;67.53;101627.91;5081898;27;20043;-43
2023/04/02 02:40:37;;;;;;;10.02;5.80;;;;;;;9.53;67.54;101623.47;5102921;27;20507;-45
2023/04/02 02:43:05;;;;;;;13.40;5.95;;;;;;;9.65;67.43;101630.75;5100444;28;20039;-44
2023/04/02 02:45:37;;;;;;;9.43;6.25;;;;;;;9.63;66.96;101627.25;5104432;27;20032;-43
2023/04/02 02:48:07;;;;;;;10.23;6.18;;;;;;;10.06;66.58;101638.03;5099493;27;20507;-42
2023/04/02 02:50:34;;;;;;;9.35;6.05;;;;;;;9.66;67.73;101638.63;5103898;28;20054;-43
2023/04/02 02:53:04;;;;;;;8.88;5.97;;;;;;;9.84;67.45;101646.09;5098648;28;20039;-44
2023/04/02 02:55:35;;;;;;;10.73;6.55;;;;;;;10.00;67.07;101648.28;5103455;27;20039;-44
2023/04/02 02:58:08;;;;;;;10.73;6.55;;;;;;;10.23;66.41;101653.28;5100972;27;20035;-43
2023/04/02 03:00:36;;;;;;;10.52;6.25;;;;;;;10.12;66.27;101656.44;5104873;27;20039;-43
2023/04/02 03:03:06;;;;;;;9.10;6.63;;;;;;;9.54;67.90;101664.28;5099043;28;20043;-45
2023/04/02 03:05:32;;;;;;;11.32;6.47;;;;;;;9.53;67.47;101672.94;5105222;28;20139;-43
2023/04/02 03:08:00;;;;;;;11.95;6.28;;;;;;;9.53;67.08;101679.88;5098262;28;20096;-43
2023/04/02 03:10:44;;;;;;;12.70;6.82;;;;;;;9.03;68.46;101681.75;5102745;27;20028;-47
2023/04/02 03:13:31;;;;;;;10.98;6.25;;;;;;;9.12;67.99;101682.06;5098451;28;20431;-42
2023/04/02 03:16:19;;;;;;;10.32;6.38;;;;;;;9.53;67.52;101696.38;5071908;27;20525;-45
2023/04/02 03:18:51;;;;;;;10.23;6.13;;;;;;;9.58;67.08;101699.09;5080782;28;20043;-45
2023/04/02 03:22:11;;;;;;;9.68;6.32;;;;;;;9.62;66.93;101701.88;5086699;28;20035;-42
2023/04/02 03:25:01;;;;;;;9.55;5.82;;;;;;;9.45;66.65;101699.59;4981099;28;20072;-44
2023/04/02 03:27:33;;;;;;;10.90;6.18;;;;;;;9.48;66.92;101721.38;5094803;27;20054;-44
2023/04/02 03:30:25;;;;;;;10.38;5.78;;;;;;;9.30;67.49;101720.78;5098323;27;22436;-46
2023/04/02 03:32:56;;;;;;;9.48;5.85;;;;;;;9.35;66.99;101724.44;5097842;28;20035;-44
2023/04/02 03:35:45;;;;;;;9.60;6.28;;;;;;;9.45;66.21;101723.91;5101587;28;20032;-44
2023/04/02 03:38:19;;;;;;;11.27;6.18;;;;;;;9.25;66.98;101736.28;5099542;27;20456;-42
2023/04/02 03:41:02;;;;;;;12.50;6.28;;;;;;;9.46;66.52;101745.56;5099662;28;20035;-45
2023/04/02 03:43:34;;;;;;;10.32;6.03;;;;;;;9.03;68.19;101753.69;5103174;28;20497;-44
2023/04/02 03:46:17;;;;;;;12.65;6.32;;;;;;;8.93;68.27;101752.53;5098114;28;20224;-44
2023/04/02 03:48:50;;;;;;;9.38;6.30;;;;;;;9.19;67.28;101766.41;5097684;28;20039;-41
2023/04/02 03:51:24;;;;;;;9.35;6.38;;;;;;;9.42;66.84;101772.34;5101767;28;20042;-43
2023/04/02 03:53:49;;;;;;;8.98;6.15;;;;;;;9.19;67.01;101782.91;5071992;28;20043;-43
2023/04/02 03:56:27;;;;;;;9.57;6.18;;;;;;;9.07;67.55;101786.81;5103158;28;20058;-42
2023/04/02 03:59:31;;;;;;;9.18;5.82;;;;;;;9.32;67.45;101785.09;5097236;28;20039;-43
2023/04/02 04:02:09;;;;;;;10.23;6.10;;;;;;;8.98;67.90;101795.16;5097273;28;20043;-44
2023/04/02 04:04:39;;;;;;;9.23;5.90;;;;;;;9.11;67.62;101806.88;5103272;28;20069;-44
2023/04/02 04:07:14;;;;;;;13.38;5.90;;;;;;;9.06;68.07;101811.94;5097721;28;20038;-44
2023/04/02 04:09:44;;;;;;;10.00;5.88;;;;;;;8.85;68.23;101809.47;5102438;28;20034;-46
2023/04/02 04:12:09;;;;;;;10.35;6.13;;;;;;;9.33;66.73;101815.44;5080854;28;20035;-42
2023/04/02 04:14:39;;;;;;;9.10;5.93;;;;;;;9.36;66.93;101814.69;5103191;28;20092;-45
2023/04/02 04:17:08;;;;;;;9.38;6.00;;;;;;;8.85;68.30;101825.06;5099017;28;20034;-44
2023/04/02 04:19:53;;;;;;;11.45;6.60;;;;;;;9.11;68.04;101831.19;5102506;28;20031;-46
2023/04/02 04:22:29;;;;;;;9.30;6.38;;;;;;;9.12;67.26;101838.16;5097847;28;20401;-44
2023/04/02 04:25:00;;;;;;;10.05;6.43;;;;;;;8.93;68.34;101843.53;5097730;28;20027;-42
2023/04/02 04:27:33;;;;;;;9.73;6.57;;;;;;;8.84;67.92;101848.44;5084207;28;20149;-44
2023/04/02 04:30:05;;;;;;;9.98;6.72;;;;;;;9.21;66.96;101851.47;5097741;28;20119;-42
2023/04/02 04:32:49;;;;;;;9.80;6.63;;;;;;;9.03;67.32;101855.13;5102651;28;20036;-44
2023/04/02 04:35:25;;;;;;;10.70;6.47;;;;;;;8.44;68.42;101856.47;5089901;28;20032;-45
2023/04/02 04:37:57;;;;;;;9.00;6.47;;;;;;;8.62;68.19;101864.06;5098815;28;20032;-43
2023/04/02 04:40:31;;;;;;;10.15;6.35;;;;;;;9.09;67.07;101861.44;5102598;28;20034;-45
2023/04/02 04:43:02;;;;;;;8.70;6.23;;;;;;;8.90;67.61;101874.66;5099420;28;20044;-43
2023/04/02 04:45:46;;;;;;;9.43;6.32;;;;;;;8.45;67.73;101871.22;5100145;28;20274;-43
2023/04/02 04:48:18;;;;;;;10.93;6.55;;;;;;;8.78;67.70;101882.88;5097789;28;20073;-43
2023/04/02 04:50:57;;;;;;;9.45;6.05;;;;;;;8.45;68.04;101881.63;5090684;28;20040;-43
2023/04/02 04:53:25;;;;;;;10.25;6.10;;;;;;;8.86;66.83;101886.63;5086079;28;20092;-44
2023/04/02 04:55:57;;;;;;;9.68;5.45;;;;;;;8.93;66.52;101891.25;5098713;28;20042;-42
2023/04/02 04:58:30;;;;;;;8.38;5.50;;;;;;;9.17;66.00;101899.03;5101744;28;20024;-46
2023/04/02 05:01:12;;;;;;;7.45;5.35;;;;;;;8.83;66.56;101901.25;5101369;28;20046;-42
2023/04/02 05:03:47;;;;;;;8.85;5.35;;;;;;;8.27;67.42;101907.75;5106925;28;20058;-43
2023/04/02 05:06:37;;;;;;;9.25;5.40;;;;;;;8.28;67.03;101912.13;5102546;28;20603;-44
2023/04/02 05:09:21;;;;;;;9.07;5.25;;;;;;;8.43;66.93;101917.06;5100882;28;20031;-42
2023/04/02 05:12:24;;;;;;;9.98;5.68;;;;;;;8.46;66.69;101925.88;5102045;28;20168;-42
2023/04/02 05:15:00;;;;;;;9.15;5.50;;;;;;;8.65;67.14;101935.25;5097332;27;20039;-45
2023/04/02 05:17:34;;;;;;;7.22;5.18;;;;;;;8.37;66.43;101932.41;5107089;28;20024;-43
2023/04/02 05:20:17;;;;;;;8.10;5.45;;;;;;;8.82;66.00;101934.19;5100300;28;20059;-47
2023/04/02 05:23:03;;;;;;;10.75;5.75;;;;;;;9.13;65.30;101953.50;5100844;28;20027;-42
2023/04/02 05:25:30;;;;;;;7.78;5.38;;;;;;;8.71;65.57;101950.19;5106878;28;20039;-44
2023/04/02 05:28:01;;;;;;;11.05;5.60;;;;;;;8.38;67.39;101963.66;5101273;28;20628;-43
2023/04/02 05:30:27;;;;;;;8.80;5.65;;;;;;;8.57;65.76;101967.88;5106121;28;20654;-44
2023/04/02 05:32:56;;;;;;;8.57;5.88;;;;;;;7.90;67.68;101979.81;5104435;28;20023;-42
2023/04/02 05:35:28;;;;;;;9.00;5.80;;;;;;;8.10;67.35;101984.13;5108594;27;20031;-43
2023/04/02 05:37:54;;;;;;;10.27;5.95;;;;;;;8.12;67.48;101983.34;5103427;27;20035;-45
2023/04/02 05:40:28;;;;;;;10.40;5.85;;;;;;;8.06;67.45;101988.28;5105931;28;20035;-44
2023/04/02 05:42:55;;;;;;;9.05;6.10;;;;;;;8.21;67.10;102002.75;5099459;27;20066;-42
2023/04/02 05:45:32;;;;;;;9.45;6.15;;;;;;;8.22;66.94;102000.22;5103127;27;20038;-45
2023/04/02 05:48:00;;;;;;;9.85;6.00;;;;;;;8.19;65.71;102007.88;5099933;27;20070;-42
2023/04/02 05:50:39;;;;;;;10.50;6.28;;;;;;;7.84;66.61;102006.41;5102253;28;20055;-43
2023/04/02 05:53:16;;;;;;;12.20;6.18;;;;;;;8.20;65.53;102022.63;5103109;27;20485;-42
2023/04/02 05:55:47;;;;;;;8.77;5.38;;;;;;;7.78;65.35;102023.44;5106246;28;20055;-43
2023/04/02 05:58:23;;;;;;;10.48;5.90;;;;;;;8.11;63.57;102022.28;5102692;27;20028;-43
2023/04/02 06:01:02;;;;;;;8.63;5.40;;;;;;;8.24;64.19;102037.50;5101861;27;20557;-44
2023/04/02 06:03:44;;;;;;;10.65;5.65;;;;;;;7.51;64.75;102041.28;5104959;28;20497;-43
2023/04/02 06:06:20;;;;;;;10.25;5.68;;;;;;;7.89;63.90;102050.75;5100609;28;20032;-49
2023/04/02 06:08:57;;;;;;;9.27;5.60;;;;;;;8.05;63.42;102056.63;5100496;28;20036;-43
2023/04/02 06:11:30;;;;;;;10.23;5.40;;;;;;;7.84;62.96;102058.34;5105439;28;20126;-42
2023/04/02 06:13:56;;;;;;;9.25;5.30;;;;;;;7.77;63.18;102065.78;5102248;27;20036;-43
2023/04/02 06:16:26;;;;;;;8.90;5.30;;;;;;;7.92;63.29;102079.44;5104920;28;20031;-42
2023/04/02 06:18:51;;;;;;;9.57;5.47;;;;;;;8.03;62.76;102080.78;5101236;27;20035;-46
2023/04/02 06:21:19;;;;;;;9.25;5.18;;;;;;;7.89;62.90;102082.78;5104845;28;20039;-44
2023/04/02 06:23:48;;;;;;;9.70;5.53;;;;;;;8.00;62.20;102097.09;5100714;27;20073;-46
2023/04/02 06:26:27;;;;;;;9.75;5.40;;;;;;;7.62;63.43;102108.41;5104407;28;20028;-44
2023/04/02 06:29:07;;;;;;;9.82;5.40;;;;;;;8.06;62.76;102112.97;5106174;27;20036;-42
2023/04/02 06:31:37;;;;;;;9.00;5.13;;;;;;;7.54;62.31;102104.59;5100897;27;20497;-42
2023/04/02 06:34:06;;;;;;;8.00;4.80;;;;;;;7.84;62.04;102115.44;5101502;27;20032;-42
2023/04/02 06:36:32;;;;;;;10.90;5.43;;;;;;;7.84;61.93;102124.94;5105410;27;20023;-44
2023/04/02 06:39:07;;;;;;;8.57;5.00;;;;;;;7.60;62.52;102125.63;5101419;27;20035;-42
2023/04/02 06:41:33;;;;;;;9.68;5.28;;;;;;;7.77;62.06;102133.28;5104151;28;20028;-42
2023/04/02 06:44:08;;;;;;;8.25;4.68;;;;;;;7.99;61.91;102136.88;5099987;27;22309;-44
2023/04/02 06:46:53;;;;;;;10.60;4.90;;;;;;;7.67;62.01;102138.06;5103802;28;20141;-44
2023/04/02 06:49:37;;;;;;;9.63;4.80;;;;;;;7.46;62.67;102156.94;5098681;27;20028;-42
2023/04/02 06:52:05;;;;;;;8.50;4.72;;;;;;;7.42;62.30;102153.34;5099838;27;20031;-44
2023/04/02 06:54:30;;;;;;;8.85;4.68;;;;;;;7.73;61.59;102150.44;5103697;27;20106;-47
2023/04/02 06:56:56;;;;;;;10.05;4.70;;;;;;;8.01;61.09;102161.22;5100926;28;20131;-42
2023/04/02 06:59:22;;;;;;;10.52;4.25;;;;;;;7.69;60.81;102162.38;5101948;28;20024;-43
2023/04/02 07:02:03;;;;;;;10.32;4.80;;;;;;;7.72;61.49;102172.91;5099863;27;20042;-43
2023/04/02 07:04:29;;;;;;;7.18;4.30;;;;;;;7.71;61.33;102172.84;5104167;27;20059;-43
2023/04/02 07:06:54;;;;;;;9.05;4.28;;;;;;;7.82;60.87;102178.50;5101085;28;20039;-45
2023/04/02 07:09:20;;;;;;;9.27;5.10;;;;;;;7.47;60.43;102180.38;5104359;27;20035;-45
2023/04/02 07:11:46;;;;;;;7.72;5.00;;;;;;;7.43;61.07;102183.66;5100240;27;20031;-44
2023/04/02 07:14:12;;;;;;;7.55;4.75;;;;;;;7.52;61.57;102204.84;5104137;28;20089;-46
2023/04/02 07:16:40;;;;;;;8.98;4.82;;;;;;;7.68;60.43;102198.66;5103027;28;20044;-43
2023/04/02 07:19:05;;;;;;;9.70;4.88;;;;;;;7.92;60.09;102206.69;5100261;28;20055;-43
2023/04/02 07:21:31;;;;;;;13.02;5.10;;;;;;;7.97;60.11;102210.38;5105343;28;20554;-42
2023/04/02 07:23:56;;;;;;;10.18;4.90;;;;;;;8.29;59.01;102217.88;5099395;27;20533;-42
2023/04/02 07:26:25;;;;;;;12.00;5.05;;;;;;;7.66;60.10;102223.66;5103453;28;20074;-46
2023/04/02 07:28:51;;;;;;;8.60;4.75;;;;;;;8.01;58.93;102227.84;5100122;28;20040;-42
2023/04/02 07:31:20;;;;;;;9.18;4.63;;;;;;;8.23;59.00;102224.53;5105228;27;20396;-43
2023/04/02 07:33:45;;;;;;;7.93;4.43;;;;;;;8.00;59.63;102232.16;5100386;28;20057;-43
2023/04/02 07:36:20;;;;;;;8.82;4.68;;;;;;;8.66;58.25;102238.56;5103951;28;20027;-43
2023/04/02 07:38:46;;;;;;;10.30;4.78;;;;;;;8.39;58.54;102248.69;5097857;27;20031;-47
2023/04/02 07:41:12;;;;;;;8.80;4.53;;;;;;;8.17;58.99;102245.94;5102071;28;20100;-42
2023/04/02 07:43:38;;;;;;;8.35;4.63;;;;;;;7.85;59.79;102261.75;5103136;28;20035;-42
2023/04/02 07:46:05;;;;;;;9.35;4.32;;;;;;;7.89;59.78;102259.34;5099151;28;20027;-41
2023/04/02 07:48:30;;;;;;;7.32;4.13;;;;;;;8.07;59.63;102262.78;5102960;28;20042;-43
2023/04/02 07:50:56;;;;;;;8.27;4.15;;;;;;;8.12;58.79;102268.19;5098689;28;20036;-42
2023/04/02 07:53:28;;;;;;;8.82;4.10;;;;;;;8.04;58.95;102274.75;5102914;27;20055;-43
2023/04/02 07:55:55;;;;;;;7.82;4.00;;;;;;;7.91;59.37;102275.00;5098789;28;20110;-42
2023/04/02 07:58:20;;;;;;;8.50;3.90;;;;;;;8.35;58.96;102264.06;5103146;28;20019;-43
2023/04/02 08:00:46;;;;;;;8.32;4.15;;;;;;;8.33;59.11;102271.78;5098847;28;20558;-45
2023/04/02 08:03:12;;;;;;;8.68;4.00;;;;;;;8.18;58.69;102278.84;5102252;28;20683;-46
2023/04/02 08:05:37;;;;;;;10.02;3.75;;;;;;;8.27;58.01;102286.19;5103193;28;20039;-43
2023/04/02 08:08:03;;;;;;;7.47;4.00;;;;;;;8.79;57.34;102287.66;5100885;28;20027;-45
2023/04/02 08:10:28;;;;;;;7.88;3.78;;;;;;;8.74;57.05;102296.09;5106126;28;20035;-44
2023/04/02 08:12:54;;;;;;;8.00;4.03;;;;;;;8.75;56.78;102296.19;5102955;28;20028;-48
2023/04/02 08:15:19;;;;;;;8.18;3.90;;;;;;;8.75;57.69;102303.97;5105366;28;20043;-42
2023/04/02 08:17:45;;;;;;;7.45;3.80;;;;;;;8.58;57.53;102306.66;5102035;28;20047;-46
2023/04/02 08:20:18;;;;;;;6.65;3.95;;;;;;;8.49;57.40;102313.22;5107819;28;20026;-41
2023/04/02 08:22:45;;;;;;;11.18;4.00;;;;;;;7.93;57.49;102328.78;5102699;28;20036;-42
2023/04/02 08:25:11;;;;;;;8.43;4.30;;;;;;;8.21;57.26;102332.66;5105689;28;20031;-44
2023/04/02 08:27:37;;;;;;;6.70;4.18;;;;;;;7.84;58.25;102341.34;5107147;28;20039;-46
2023/04/02 08:30:03;;;;;;;6.68;4.00;;;;;;;8.19;57.54;102345.56;5099568;28;20501;-43
2023/04/02 08:32:29;;;;;;;8.38;4.15;;;;;;;7.93;57.91;102346.94;5102811;28;20553;-43
2023/04/02 08:34:54;;;;;;;7.57;4.28;;;;;;;7.71;58.69;102357.13;5101639;28;20027;-42
2023/04/02 08:37:20;;;;;;;7.93;4.38;;;;;;;7.68;58.35;102362.19;5105524;27;20024;-42
2023/04/02 08:39:45;;;;;;;11.43;4.60;;;;;;;8.58;56.94;102356.94;5101395;27;20050;-43
2023/04/02 08:42:30;;;;;;;8.73;4.32;;;;;;;8.36;56.42;102355.06;5105888;28;20406;-41
2023/04/02 08:45:08;;;;;;;;;;;;;;;8.24;56.79;102353.56;5101532;27;20036;-42
2023/04/02 08:47:36;;;;;;;8.18;4.25;;;;;;;8.52;56.12;102357.56;5106535;27;20265;-44
2023/04/02 08:50:25;;;;;;;8.40;4.25;;;;;;;8.31;56.00;102366.06;5102799;28;20479;-42
2023/04/02 08:52:51;;;;;;;7.43;4.00;;;;;;;8.85;55.55;102365.06;5101885;27;20040;-42
2023/04/02 08:55:46;;;;;;;7.32;4.05;;;;;;;8.94;54.53;102368.97;5106271;28;20024;-44
2023/04/02 08:58:59;;;;;;;6.28;3.80;;;;;;;8.80;53.98;102372.66;5102428;28;20036;-49
2023/04/02 09:01:51;;;;;;;7.78;3.78;;;;;;;9.11;53.92;102384.41;5088013;27;20470;-44
2023/04/02 09:04:23;;;;;;;6.97;3.80;;;;;;;8.95;53.37;102380.28;5099976;28;20089;-43
2023/04/02 09:06:52;;;;;;;9.18;4.60;;;;;;;8.71;53.65;102395.69;5100705;28;20035;-44
2023/04/02 09:09:18;;;;;;;7.38;4.22;;;;;;;8.29;54.36;102410.16;5105656;28;20378;-43
2023/04/02 09:12:00;;;;;;;10.48;3.92;;;;;;;8.18;55.16;102408.75;5101930;27;20556;-43
2023/04/02 09:15:04;;;;;;;9.05;4.43;;;;;;;8.00;55.19;102416.53;5105348;27;20023;-45
2023/04/02 09:17:30;;;;;;;8.43;4.28;;;;;;;7.80;56.10;102417.31;5101034;28;20036;-43
2023/04/02 09:20:16;;;;;;;8.50;3.97;;;;;;;8.02;55.33;102427.91;5102440;28;20034;-43
2023/04/02 09:22:44;;;;;;;10.63;4.30;;;;;;;7.86;54.77;102434.88;5098444;28;20099;-41
2023/04/02 09:25:15;;;;;;;7.85;4.20;;;;;;;8.45;54.13;102424.78;5105724;28;20032;-45
2023/04/02 09:27:41;;;;;;;10.90;4.05;;;;;;;8.29;54.36;102427.44;5106078;27;20051;-45
2023/04/02 09:30:17;;;;;;;9.52;4.05;;;;;;;7.80;55.31;102432.00;5100196;28;20691;-43
2023/04/02 09:32:51;;;;;;;11.38;4.30;;;;;;;8.09;55.54;102442.09;5101004;28;20088;-43
2023/04/02 09:35:18;;;;;;;7.15;4.03;;;;;;;8.63;54.40;102433.44;5105626;27;20461;-43
2023/04/02 09:37:44;;;;;;;8.07;3.85;;;;;;;9.58;53.74;102439.38;5100781;27;20039;-48
2023/04/02 09:40:15;;;;;;;6.15;3.50;;;;;;;8.96;53.11;102432.34;5105352;27;20450;-46
2023/04/02 09:42:41;;;;;;;9.30;3.72;;;;;;;8.95;52.58;102434.91;5100946;28;20050;-42
2023/04/02 09:45:23;;;;;;;9.23;4.03;;;;;;;8.64;52.68;102439.53;5104652;28;20472;-44
2023/04/02 09:47:50;;;;;;;8.77;3.75;;;;;;;8.99;52.47;102448.91;5100161;27;20092;-41
2023/04/02 09:50:33;;;;;;;7.30;3.90;;;;;;;8.35;53.05;102458.97;5103700;27;20101;-41
2023/04/02 09:53:25;;;;;;;9.60;3.70;;;;;;;8.94;53.21;102443.50;5100393;27;20035;-43
2023/04/02 09:56:10;;;;;;;7.32;3.40;;;;;;;8.71;53.83;102446.78;5100418;27;20413;-42
2023/04/02 09:58:35;;;;;;;7.40;3.67;;;;;;;9.11;52.15;102452.06;5103758;28;20518;-41
2023/04/02 10:01:01;;;;;;;8.10;3.75;;;;;;;9.08;50.94;102457.16;5098813;28;20118;-40
2023/04/02 10:03:30;;;;;;;5.45;3.42;;;;;;;9.66;50.87;102453.63;5104390;27;20058;-44
2023/04/02 10:06:14;;;;;;;9.48;3.78;;;;;;;9.53;50.73;102472.16;5099599;27;20108;-41
2023/04/02 10:08:42;;;;;;;8.52;3.70;;;;;;;9.12;51.17;102475.56;5101750;27;20071;-50
2023/04/02 10:11:13;;;;;;;7.65;4.15;;;;;;;9.08;50.88;102475.34;5101669;28;20036;-40
2023/04/02 10:13:52;;;;;;;9.13;3.83;;;;;;;9.65;51.42;102483.09;5102690;28;20059;-51
2023/04/02 10:16:35;;;;;;;11.13;3.95;;;;;;;9.80;52.58;102475.03;5100469;27;20498;-41
2023/04/02 10:19:19;;;;;;;8.32;3.60;;;;;;;9.44;50.44;102482.19;5102010;28;20138;-40
2023/04/02 10:21:48;;;;;;;7.90;3.88;;;;;;;9.72;49.92;102481.63;5101508;28;20038;-40
2023/04/02 10:24:15;;;;;;;7.63;3.60;;;;;;;9.84;49.75;102481.25;5106564;28;20044;-43
2023/04/02 10:26:59;;;;;;;9.23;3.90;;;;;;;9.56;49.82;102487.91;5095100;28;20104;-38
2023/04/02 10:29:37;;;;;;;6.47;3.30;;;;;;;9.72;48.89;102494.66;5106307;28;20035;-41
2023/04/02 10:32:17;;;;;;;8.15;3.60;;;;;;;9.56;48.82;102498.34;5103258;27;20031;-39
2023/04/02 10:35:02;;;;;;;9.60;4.00;;;;;;;9.43;49.55;102503.81;5103820;27;20032;-44
2023/04/02 10:37:42;;;;;;;;;;;;;;;9.44;48.92;102503.00;5107633;28;20362;-37
2023/04/02 10:40:10;;;;;;;7.03;3.70;;;;;;;9.77;49.26;102513.97;5098603;28;19934;-39
2023/04/02 10:43:01;;;;;;;6.72;3.80;;;;;;;9.83;49.42;102518.53;5100578;28;20039;-38
2023/04/02 10:45:51;;;;;;;6.40;3.70;;;;;;;9.95;49.93;102524.28;5097398;28;20031;-39
2023/04/02 10:48:23;;;;;;;6.95;3.40;;;;;;;10.13;49.63;102525.94;5098589;28;20122;-39
2023/04/02 10:50:58;;;;;;;7.25;3.33;;;;;;;9.89;49.58;102542.25;5096979;28;20062;-39
2023/04/02 10:53:51;;;;;;;10.55;3.95;;;;;;;10.00;49.12;102528.00;5100681;28;20110;-39
2023/04/02 10:56:17;;;;;;;9.68;3.60;;;;;;;9.89;48.28;102531.81;5097303;27;20083;-39
2023/04/02 10:59:01;;;;;;;9.13;3.20;;;;;;;9.81;48.15;102538.44;5097844;28;20047;-38
2023/04/02 11:01:30;;;;;;;6.68;2.97;;;;;;;10.02;48.64;102547.16;5101940;28;20023;-38
2023/04/02 11:04:01;;;;;;;5.88;3.00;;;;;;;10.42;48.09;102534.09;5097075;27;20048;-38
2023/04/02 11:06:59;;;;;;;6.38;2.88;;;;;;;10.65;47.91;102532.41;5099283;28;20031;-40
2023/04/02 11:09:28;;;;;;;7.28;2.60;;;;;;;10.56;47.98;102536.41;5094377;27;20028;-38
2023/04/02 11:11:56;;;;;;;7.00;2.55;;;;;;;10.27;47.70;102550.00;5096938;28;20028;-38
2023/04/02 11:14:26;;;;;;;5.70;2.55;;;;;;;10.30;48.00;102537.09;5101746;27;20505;-40
2023/04/02 11:16:54;;;;;;;4.88;2.60;;;;;;;10.47;48.96;102551.72;5097448;28;20502;-37
2023/04/02 11:19:21;;;;;;;6.22;2.50;;;;;;;10.69;48.19;102545.63;5104104;28;20031;-38
2023/04/02 11:21:47;;;;;;;5.80;2.20;;;;;;;11.19;48.55;102557.13;5099797;27;20122;-41
2023/04/02 11:24:35;;;;;;;5.60;2.50;;;;;;;10.56;47.70;102549.47;5102151;27;20032;-38
2023/04/02 11:27:10;;;;;;;4.20;2.47;;;;;;;10.26;48.57;102542.09;5098630;28;20607;-38
2023/04/02 11:29:58;;;;;;;4.10;2.38;;;;;;;10.77;48.70;102549.44;5102969;27;20036;-38
2023/04/02 11:32:36;;;;;;;5.03;2.50;;;;;;;10.70;48.04;102551.72;5097114;28;20031;-38
2023/04/02 11:35:22;;;;;;;5.25;2.17;;;;;;;10.87;47.65;102551.56;5099132;28;20039;-39
2023/04/02 11:37:48;;;;;;;5.03;2.20;;;;;;;10.76;47.62;102563.28;5098774;27;20039;-41
2023/04/02 11:40:13;;;;;;;5.63;2.35;;;;;;;10.38;48.43;102560.84;5104083;28;20081;-40
2023/04/02 11:42:46;;;;;;;4.05;2.33;;;;;;;10.49;48.31;102559.59;5105088;28;20039;-38
2023/04/02 11:45:27;;;;;;;5.30;2.28;;;;;;;10.47;48.86;102564.75;5099454;27;20027;-40
2023/04/02 11:47:58;;;;;;;6.70;2.25;;;;;;;10.44;48.32;102556.78;5097568;27;20093;-38
2023/04/02 11:50:28;;;;;;;5.68;2.30;;;;;;;10.70;48.21;102559.56;5101908;28;20031;-38
2023/04/02 11:52:56;;;;;;;5.03;1.95;;;;;;;10.96;48.00;102556.25;5097501;28;20023;-40
2023/04/02 11:55:25;;;;;;;6.03;2.50;;;;;;;10.91;47.81;102560.41;5099581;28;20401;-38
2023/04/02 11:58:22;;;;;;;7.65;2.35;;;;;;;10.95;47.80;102565.81;5097435;28;20050;-38
2023/04/02 12:00:50;;;;;;;5.13;2.00;;;;;;;11.29;47.71;102581.00;5096528;28;20590;-39